sensor_id;sensor_type;location;lat;lon;timestamp;temperature;humidity
11965;DHT22;6042;41.326;19.826;2023-06-22T00:01:35;25.50;99.90
11965;DHT22;6042;41.326;19.826;2023-06-22T00:04:04;25.40;99.90
11965;DHT22;6042;41.326;19.826;2023-06-22T00:06:32;25.40;99.90
11965;DHT22;6042;41.326;19.826;2023-06-22T00:09:01;25.40;99.90
11965;DHT22;6042;41.326;19.826;2023-06-22T00:11:30;25.20;99.90
11965;DHT22;6042;41.326;19.826;2023-06-22T00:14:01;25.20;99.90
11965;DHT22;6042;41.326;19.826;2023-06-22T00:16:31;25.10;99.90
11965;DHT22;6042;41.326;19.826;2023-06-22T00:19:01;25.10;99.90
11965;DHT22;6042;41.326;19.826;2023-06-22T00:21:30;25.10;99.90
11965;DHT22;6042;41.326;19.826;2023-06-22T00:23:58;25.00;99.90
11965;DHT22;6042;41.326;19.826;2023-06-22T00:26:29;25.00;99.90
11965;DHT22;6042;41.326;19.826;2023-06-22T00:28:58;25.00;99.90
11965;DHT22;6042;41.326;19.826;2023-06-22T00:31:26;25.00;99.90
11965;DHT22;6042;41.326;19.826;2023-06-22T00:33:55;24.90;99.90
11965;DHT22;6042;41.326;19.826;2023-06-22T00:36:24;24.80;99.90
11965;DHT22;6042;41.326;19.826;2023-06-22T00:38:56;24.70;99.90
11965;DHT22;6042;41.326;19.826;2023-06-22T00:41:24;24.70;99.90
11965;DHT22;6042;41.326;19.826;2023-06-22T00:43:55;24.70;99.90
11965;DHT22;6042;41.326;19.826;2023-06-22T00:46:24;24.60;99.90
11965;DHT22;6042;41.326;19.826;2023-06-22T00:48:53;24.60;99.90
11965;DHT22;6042;41.326;19.826;2023-06-22T00:51:25;24.60;99.90
11965;DHT22;6042;41.326;19.826;2023-06-22T00:53:54;24.60;99.90
11965;DHT22;6042;41.326;19.826;2023-06-22T00:56:23;24.50;99.90
11965;DHT22;6042;41.326;19.826;2023-06-22T00:58:53;24.50;99.90
11965;DHT22;6042;41.326;19.826;2023-06-22T01:01:22;24.50;99.90
11965;DHT22;6042;41.326;19.826;2023-06-22T01:03:51;24.50;99.90
11965;DHT22;6042;41.326;19.826;2023-06-22T01:06:28;24.50;99.90
11965;DHT22;6042;41.326;19.826;2023-06-22T01:09:08;24.50;99.90
11965;DHT22;6042;41.326;19.826;2023-06-22T01:11:45;24.50;99.90
11965;DHT22;6042;41.326;19.826;2023-06-22T01:14:19;24.50;99.90
11965;DHT22;6042;41.326;19.826;2023-06-22T01:16:52;24.40;99.90
11965;DHT22;6042;41.326;19.826;2023-06-22T01:19:35;24.30;99.90
11965;DHT22;6042;41.326;19.826;2023-06-22T01:22:06;24.30;99.90
11965;DHT22;6042;41.326;19.826;2023-06-22T01:24:53;24.30;99.90
11965;DHT22;6042;41.326;19.826;2023-06-22T01:27:32;24.30;99.90
11965;DHT22;6042;41.326;19.826;2023-06-22T01:30:05;24.30;99.90
11965;DHT22;6042;41.326;19.826;2023-06-22T01:32:36;24.40;99.90
11965;DHT22;6042;41.326;19.826;2023-06-22T01:35:07;24.40;99.90
11965;DHT22;6042;41.326;19.826;2023-06-22T01:37:37;24.40;99.90
11965;DHT22;6042;41.326;19.826;2023-06-22T01:40:07;24.40;99.90
11965;DHT22;6042;41.326;19.826;2023-06-22T01:42:37;24.40;99.90
11965;DHT22;6042;41.326;19.826;2023-06-22T01:45:09;24.30;99.90
11965;DHT22;6042;41.326;19.826;2023-06-22T01:47:39;24.30;99.90
11965;DHT22;6042;41.326;19.826;2023-06-22T01:50:09;24.30;99.90
11965;DHT22;6042;41.326;19.826;2023-06-22T01:52:38;24.30;99.90
11965;DHT22;6042;41.326;19.826;2023-06-22T01:55:07;24.30;99.90
11965;DHT22;6042;41.326;19.826;2023-06-22T01:57:35;24.20;99.90
11965;DHT22;6042;41.326;19.826;2023-06-22T02:00:09;24.10;99.90
11965;DHT22;6042;41.326;19.826;2023-06-22T02:02:47;24.00;99.90
11965;DHT22;6042;41.326;19.826;2023-06-22T02:05:19;24.00;99.90
11965;DHT22;6042;41.326;19.826;2023-06-22T02:07:56;23.90;99.90
11965;DHT22;6042;41.326;19.826;2023-06-22T02:10:31;23.90;99.90
11965;DHT22;6042;41.326;19.826;2023-06-22T02:13:03;23.90;99.90
11965;DHT22;6042;41.326;19.826;2023-06-22T02:15:34;23.90;99.90
11965;DHT22;6042;41.326;19.826;2023-06-22T02:18:03;23.90;99.90
11965;DHT22;6042;41.326;19.826;2023-06-22T02:20:32;23.90;99.90
11965;DHT22;6042;41.326;19.826;2023-06-22T02:23:01;23.90;99.90
11965;DHT22;6042;41.326;19.826;2023-06-22T02:25:35;23.90;99.90
11965;DHT22;6042;41.326;19.826;2023-06-22T02:28:04;23.90;99.90
11965;DHT22;6042;41.326;19.826;2023-06-22T02:30:34;23.80;99.90
11965;DHT22;6042;41.326;19.826;2023-06-22T02:33:03;23.80;99.90
11965;DHT22;6042;41.326;19.826;2023-06-22T02:35:31;23.80;99.90
11965;DHT22;6042;41.326;19.826;2023-06-22T02:38:03;23.80;99.90
11965;DHT22;6042;41.326;19.826;2023-06-22T02:40:32;23.80;99.90
11965;DHT22;6042;41.326;19.826;2023-06-22T02:43:00;23.80;99.90
11965;DHT22;6042;41.326;19.826;2023-06-22T02:45:30;23.70;99.90
11965;DHT22;6042;41.326;19.826;2023-06-22T02:48:00;23.70;99.90
11965;DHT22;6042;41.326;19.826;2023-06-22T02:50:28;23.70;99.90
11965;DHT22;6042;41.326;19.826;2023-06-22T02:52:58;23.70;99.90
11965;DHT22;6042;41.326;19.826;2023-06-22T02:55:29;23.70;99.90
11965;DHT22;6042;41.326;19.826;2023-06-22T02:57:58;23.60;99.90
11965;DHT22;6042;41.326;19.826;2023-06-22T03:00:34;23.70;99.90
11965;DHT22;6042;41.326;19.826;2023-06-22T03:03:04;23.70;99.90
11965;DHT22;6042;41.326;19.826;2023-06-22T03:05:32;23.70;99.90
11965;DHT22;6042;41.326;19.826;2023-06-22T03:08:03;23.70;99.90
11965;DHT22;6042;41.326;19.826;2023-06-22T03:10:34;23.70;99.90
11965;DHT22;6042;41.326;19.826;2023-06-22T03:13:02;23.70;99.90
11965;DHT22;6042;41.326;19.826;2023-06-22T03:15:30;23.70;99.90
11965;DHT22;6042;41.326;19.826;2023-06-22T03:17:59;23.70;99.90
11965;DHT22;6042;41.326;19.826;2023-06-22T03:20:29;23.60;99.90
11965;DHT22;6042;41.326;19.826;2023-06-22T03:23:00;23.50;99.90
11965;DHT22;6042;41.326;19.826;2023-06-22T03:25:29;23.50;99.90
11965;DHT22;6042;41.326;19.826;2023-06-22T03:27:57;23.50;99.90
11965;DHT22;6042;41.326;19.826;2023-06-22T03:30:26;23.30;99.90
11965;DHT22;6042;41.326;19.826;2023-06-22T03:32:55;23.40;99.90
11965;DHT22;6042;41.326;19.826;2023-06-22T03:35:26;23.30;99.90
11965;DHT22;6042;41.326;19.826;2023-06-22T03:37:56;23.30;99.90
11965;DHT22;6042;41.326;19.826;2023-06-22T03:40:25;23.40;99.90
11965;DHT22;6042;41.326;19.826;2023-06-22T03:42:56;23.40;99.90
11965;DHT22;6042;41.326;19.826;2023-06-22T03:45:24;23.40;99.90
11965;DHT22;6042;41.326;19.826;2023-06-22T03:47:52;23.40;99.90
11965;DHT22;6042;41.326;19.826;2023-06-22T03:50:21;23.50;99.90
11965;DHT22;6042;41.326;19.826;2023-06-22T03:52:50;23.70;99.90
11965;DHT22;6042;41.326;19.826;2023-06-22T03:55:21;23.70;99.90
11965;DHT22;6042;41.326;19.826;2023-06-22T03:57:49;23.70;99.90
11965;DHT22;6042;41.326;19.826;2023-06-22T04:00:18;23.80;99.90
11965;DHT22;6042;41.326;19.826;2023-06-22T04:02:46;23.80;99.90
11965;DHT22;6042;41.326;19.826;2023-06-22T04:05:15;23.80;99.90
11965;DHT22;6042;41.326;19.826;2023-06-22T04:07:44;23.80;99.90
11965;DHT22;6042;41.326;19.826;2023-06-22T04:10:12;23.90;99.90
11965;DHT22;6042;41.326;19.826;2023-06-22T04:12:54;23.90;99.90
11965;DHT22;6042;41.326;19.826;2023-06-22T04:15:23;23.80;99.90
11965;DHT22;6042;41.326;19.826;2023-06-22T04:17:51;23.80;99.90
11965;DHT22;6042;41.326;19.826;2023-06-22T04:20:20;23.90;99.90
11965;DHT22;6042;41.326;19.826;2023-06-22T04:22:48;24.00;99.90
11965;DHT22;6042;41.326;19.826;2023-06-22T04:25:17;24.10;99.90
11965;DHT22;6042;41.326;19.826;2023-06-22T04:27:46;24.10;99.90
11965;DHT22;6042;41.326;19.826;2023-06-22T04:30:16;24.10;99.90
11965;DHT22;6042;41.326;19.826;2023-06-22T04:32:45;24.20;99.90
11965;DHT22;6042;41.326;19.826;2023-06-22T04:35:23;24.30;99.90
11965;DHT22;6042;41.326;19.826;2023-06-22T04:37:53;24.40;99.90
11965;DHT22;6042;41.326;19.826;2023-06-22T04:40:23;24.50;99.90
11965;DHT22;6042;41.326;19.826;2023-06-22T04:42:52;24.60;99.90
11965;DHT22;6042;41.326;19.826;2023-06-22T04:45:22;24.60;99.90
11965;DHT22;6042;41.326;19.826;2023-06-22T04:47:51;24.60;99.90
11965;DHT22;6042;41.326;19.826;2023-06-22T04:54:54;24.60;99.90
11965;DHT22;6042;41.326;19.826;2023-06-22T04:57:26;24.70;99.90
11965;DHT22;6042;41.326;19.826;2023-06-22T05:00:00;24.80;99.90
11965;DHT22;6042;41.326;19.826;2023-06-22T05:02:40;24.80;99.90
11965;DHT22;6042;41.326;19.826;2023-06-22T05:05:09;24.90;99.90
11965;DHT22;6042;41.326;19.826;2023-06-22T05:07:42;25.00;99.90
11965;DHT22;6042;41.326;19.826;2023-06-22T05:10:12;24.90;99.90
11965;DHT22;6042;41.326;19.826;2023-06-22T05:12:41;24.90;99.90
11965;DHT22;6042;41.326;19.826;2023-06-22T05:15:09;25.00;99.90
11965;DHT22;6042;41.326;19.826;2023-06-22T05:17:40;25.00;99.90
11965;DHT22;6042;41.326;19.826;2023-06-22T05:20:11;25.10;99.90
11965;DHT22;6042;41.326;19.826;2023-06-22T05:22:40;25.10;99.90
11965;DHT22;6042;41.326;19.826;2023-06-22T05:25:11;25.20;99.90
11965;DHT22;6042;41.326;19.826;2023-06-22T05:27:40;25.20;99.90
11965;DHT22;6042;41.326;19.826;2023-06-22T05:30:11;25.30;99.90
11965;DHT22;6042;41.326;19.826;2023-06-22T05:32:41;25.30;99.90
11965;DHT22;6042;41.326;19.826;2023-06-22T05:35:12;25.30;99.90
11965;DHT22;6042;41.326;19.826;2023-06-22T05:37:40;25.40;99.90
11965;DHT22;6042;41.326;19.826;2023-06-22T05:40:10;25.50;99.90
11965;DHT22;6042;41.326;19.826;2023-06-22T05:42:39;25.70;99.90
11965;DHT22;6042;41.326;19.826;2023-06-22T05:45:08;25.80;99.90
11965;DHT22;6042;41.326;19.826;2023-06-22T05:47:37;25.90;99.90
11965;DHT22;6042;41.326;19.826;2023-06-22T05:50:08;25.80;99.90
11965;DHT22;6042;41.326;19.826;2023-06-22T05:52:53;26.00;99.90
11965;DHT22;6042;41.326;19.826;2023-06-22T05:55:22;26.10;99.90
11965;DHT22;6042;41.326;19.826;2023-06-22T05:57:50;26.10;99.90
11965;DHT22;6042;41.326;19.826;2023-06-22T06:00:19;26.30;99.90
11965;DHT22;6042;41.326;19.826;2023-06-22T06:02:50;26.50;99.90
11965;DHT22;6042;41.326;19.826;2023-06-22T06:05:20;26.60;99.90
11965;DHT22;6042;41.326;19.826;2023-06-22T06:07:50;26.50;99.90
11965;DHT22;6042;41.326;19.826;2023-06-22T06:10:20;26.60;99.90
11965;DHT22;6042;41.326;19.826;2023-06-22T06:12:48;26.70;99.90
11965;DHT22;6042;41.326;19.826;2023-06-22T06:15:17;26.80;99.90
11965;DHT22;6042;41.326;19.826;2023-06-22T06:17:46;26.90;99.90
11965;DHT22;6042;41.326;19.826;2023-06-22T06:20:15;27.10;99.90
11965;DHT22;6042;41.326;19.826;2023-06-22T06:22:45;27.10;99.90
11965;DHT22;6042;41.326;19.826;2023-06-22T06:25:14;27.20;99.90
11965;DHT22;6042;41.326;19.826;2023-06-22T06:27:44;27.30;99.90
11965;DHT22;6042;41.326;19.826;2023-06-22T06:30:14;27.30;99.90
11965;DHT22;6042;41.326;19.826;2023-06-22T06:32:44;27.50;99.90
11965;DHT22;6042;41.326;19.826;2023-06-22T06:35:14;27.50;99.90
11965;DHT22;6042;41.326;19.826;2023-06-22T06:37:47;27.70;99.90
11965;DHT22;6042;41.326;19.826;2023-06-22T06:40:17;27.90;99.90
11965;DHT22;6042;41.326;19.826;2023-06-22T06:42:47;28.00;99.90
11965;DHT22;6042;41.326;19.826;2023-06-22T06:45:19;28.00;99.90
11965;DHT22;6042;41.326;19.826;2023-06-22T06:47:50;28.10;99.90
11965;DHT22;6042;41.326;19.826;2023-06-22T06:50:20;28.20;99.90
11965;DHT22;6042;41.326;19.826;2023-06-22T06:52:49;28.30;99.90
11965;DHT22;6042;41.326;19.826;2023-06-22T06:55:18;28.50;99.90
11965;DHT22;6042;41.326;19.826;2023-06-22T06:57:47;28.70;99.90
11965;DHT22;6042;41.326;19.826;2023-06-22T07:00:18;28.80;99.90
11965;DHT22;6042;41.326;19.826;2023-06-22T07:02:46;28.70;99.90
11965;DHT22;6042;41.326;19.826;2023-06-22T07:05:16;28.80;99.90
11965;DHT22;6042;41.326;19.826;2023-06-22T07:07:44;29.00;99.90
11965;DHT22;6042;41.326;19.826;2023-06-22T07:10:14;29.10;99.90
11965;DHT22;6042;41.326;19.826;2023-06-22T07:12:43;29.10;99.90
11965;DHT22;6042;41.326;19.826;2023-06-22T07:15:12;29.20;99.90
11965;DHT22;6042;41.326;19.826;2023-06-22T07:17:40;29.20;99.90
11965;DHT22;6042;41.326;19.826;2023-06-22T07:20:10;29.10;99.90
11965;DHT22;6042;41.326;19.826;2023-06-22T07:22:41;29.10;99.90
11965;DHT22;6042;41.326;19.826;2023-06-22T07:25:10;29.00;99.90
11965;DHT22;6042;41.326;19.826;2023-06-22T07:27:57;29.00;99.90
11965;DHT22;6042;41.326;19.826;2023-06-22T07:30:26;29.10;99.90
11965;DHT22;6042;41.326;19.826;2023-06-22T07:32:56;29.20;99.90
11965;DHT22;6042;41.326;19.826;2023-06-22T07:35:24;29.30;99.90
11965;DHT22;6042;41.326;19.826;2023-06-22T07:37:53;29.50;99.90
11965;DHT22;6042;41.326;19.826;2023-06-22T07:40:22;29.50;99.90
11965;DHT22;6042;41.326;19.826;2023-06-22T07:42:52;29.60;99.90
11965;DHT22;6042;41.326;19.826;2023-06-22T07:45:20;29.70;99.90
11965;DHT22;6042;41.326;19.826;2023-06-22T07:47:49;29.60;99.90
11965;DHT22;6042;41.326;19.826;2023-06-22T07:50:18;29.60;99.90
11965;DHT22;6042;41.326;19.826;2023-06-22T07:52:46;29.70;99.90
11965;DHT22;6042;41.326;19.826;2023-06-22T07:55:16;29.70;99.90
11965;DHT22;6042;41.326;19.826;2023-06-22T07:57:46;29.70;99.90
11965;DHT22;6042;41.326;19.826;2023-06-22T08:00:18;29.70;99.90
11965;DHT22;6042;41.326;19.826;2023-06-22T08:02:48;29.80;99.90
11965;DHT22;6042;41.326;19.826;2023-06-22T08:05:17;29.80;99.90
11965;DHT22;6042;41.326;19.826;2023-06-22T08:07:49;29.80;99.90
11965;DHT22;6042;41.326;19.826;2023-06-22T08:10:18;29.80;99.90
11965;DHT22;6042;41.326;19.826;2023-06-22T08:12:47;29.90;99.90
11965;DHT22;6042;41.326;19.826;2023-06-22T08:15:17;30.00;99.90
11965;DHT22;6042;41.326;19.826;2023-06-22T08:17:46;30.00;99.90
11965;DHT22;6042;41.326;19.826;2023-06-22T08:20:14;30.00;99.90
11965;DHT22;6042;41.326;19.826;2023-06-22T08:22:43;29.90;99.90
11965;DHT22;6042;41.326;19.826;2023-06-22T08:25:12;29.90;99.90
11965;DHT22;6042;41.326;19.826;2023-06-22T08:27:45;29.90;99.90
11965;DHT22;6042;41.326;19.826;2023-06-22T08:30:14;29.90;99.90
11965;DHT22;6042;41.326;19.826;2023-06-22T08:32:44;29.90;99.90
11965;DHT22;6042;41.326;19.826;2023-06-22T08:35:13;29.90;99.90
11965;DHT22;6042;41.326;19.826;2023-06-22T08:37:42;30.00;99.90
11965;DHT22;6042;41.326;19.826;2023-06-22T08:40:12;30.10;99.90
11965;DHT22;6042;41.326;19.826;2023-06-22T08:42:41;30.20;99.90
11965;DHT22;6042;41.326;19.826;2023-06-22T08:45:10;30.20;99.90
11965;DHT22;6042;41.326;19.826;2023-06-22T08:47:39;30.40;99.90
11965;DHT22;6042;41.326;19.826;2023-06-22T08:50:10;30.50;99.90
11965;DHT22;6042;41.326;19.826;2023-06-22T08:52:41;30.60;99.90
11965;DHT22;6042;41.326;19.826;2023-06-22T08:55:10;30.60;99.90
11965;DHT22;6042;41.326;19.826;2023-06-22T08:57:38;30.60;99.90
11965;DHT22;6042;41.326;19.826;2023-06-22T09:00:08;30.70;99.90
11965;DHT22;6042;41.326;19.826;2023-06-22T09:02:44;30.80;99.90
11965;DHT22;6042;41.326;19.826;2023-06-22T09:05:14;30.80;99.90
11965;DHT22;6042;41.326;19.826;2023-06-22T09:07:44;30.80;99.90
11965;DHT22;6042;41.326;19.826;2023-06-22T09:10:13;30.80;99.90
11965;DHT22;6042;41.326;19.826;2023-06-22T09:12:42;30.90;99.90
11965;DHT22;6042;41.326;19.826;2023-06-22T09:15:10;31.10;99.90
11965;DHT22;6042;41.326;19.826;2023-06-22T09:17:44;31.20;99.50
11965;DHT22;6042;41.326;19.826;2023-06-22T09:20:15;31.30;99.40
11965;DHT22;6042;41.326;19.826;2023-06-22T09:22:44;31.30;99.20
11965;DHT22;6042;41.326;19.826;2023-06-22T09:25:12;31.30;98.70
11965;DHT22;6042;41.326;19.826;2023-06-22T09:27:40;31.20;98.70
11965;DHT22;6042;41.326;19.826;2023-06-22T09:30:09;31.20;99.00
11965;DHT22;6042;41.326;19.826;2023-06-22T09:32:38;31.30;99.10
11965;DHT22;6042;41.326;19.826;2023-06-22T09:35:07;31.40;98.50
11965;DHT22;6042;41.326;19.826;2023-06-22T09:37:41;31.50;99.10
11965;DHT22;6042;41.326;19.826;2023-06-22T09:40:10;31.50;99.20
11965;DHT22;6042;41.326;19.826;2023-06-22T09:42:41;31.50;99.30
11965;DHT22;6042;41.326;19.826;2023-06-22T09:45:10;31.60;99.00
11965;DHT22;6042;41.326;19.826;2023-06-22T09:47:38;31.80;98.80
11965;DHT22;6042;41.326;19.826;2023-06-22T09:50:08;31.70;98.80
11965;DHT22;6042;41.326;19.826;2023-06-22T09:52:36;31.60;98.50
11965;DHT22;6042;41.326;19.826;2023-06-22T09:55:09;31.70;98.90
11965;DHT22;6042;41.326;19.826;2023-06-22T09:57:37;31.70;98.50
11965;DHT22;6042;41.326;19.826;2023-06-22T10:00:07;31.90;98.20
11965;DHT22;6042;41.326;19.826;2023-06-22T10:02:39;32.10;97.70
11965;DHT22;6042;41.326;19.826;2023-06-22T10:05:08;32.20;97.70
11965;DHT22;6042;41.326;19.826;2023-06-22T10:07:37;32.10;97.80
11965;DHT22;6042;41.326;19.826;2023-06-22T10:10:13;32.20;97.40
11965;DHT22;6042;41.326;19.826;2023-06-22T10:12:46;32.30;97.40
11965;DHT22;6042;41.326;19.826;2023-06-22T10:15:15;32.30;97.40
11965;DHT22;6042;41.326;19.826;2023-06-22T10:17:44;32.30;97.00
11965;DHT22;6042;41.326;19.826;2023-06-22T10:20:13;32.30;96.70
11965;DHT22;6042;41.326;19.826;2023-06-22T10:22:43;32.30;97.00
11965;DHT22;6042;41.326;19.826;2023-06-22T10:25:15;32.50;97.00
11965;DHT22;6042;41.326;19.826;2023-06-22T10:27:43;32.60;97.10
11965;DHT22;6042;41.326;19.826;2023-06-22T10:30:12;32.60;97.10
11965;DHT22;6042;41.326;19.826;2023-06-22T10:32:41;32.60;97.30
11965;DHT22;6042;41.326;19.826;2023-06-22T10:35:11;32.50;97.40
11965;DHT22;6042;41.326;19.826;2023-06-22T10:37:42;32.30;97.50
11965;DHT22;6042;41.326;19.826;2023-06-22T10:40:11;32.50;97.50
11965;DHT22;6042;41.326;19.826;2023-06-22T10:42:41;32.50;97.00
11965;DHT22;6042;41.326;19.826;2023-06-22T10:45:10;32.60;97.00
11965;DHT22;6042;41.326;19.826;2023-06-22T10:47:39;32.80;96.60
11965;DHT22;6042;41.326;19.826;2023-06-22T10:50:10;32.90;96.20
11965;DHT22;6042;41.326;19.826;2023-06-22T10:52:39;33.10;96.00
11965;DHT22;6042;41.326;19.826;2023-06-22T10:55:10;33.10;96.40
11965;DHT22;6042;41.326;19.826;2023-06-22T10:57:40;33.20;96.10
11965;DHT22;6042;41.326;19.826;2023-06-22T11:00:12;33.10;96.20
11965;DHT22;6042;41.326;19.826;2023-06-22T11:02:41;33.10;95.90
11965;DHT22;6042;41.326;19.826;2023-06-22T11:05:09;33.30;95.80
11965;DHT22;6042;41.326;19.826;2023-06-22T11:07:41;33.30;95.60
11965;DHT22;6042;41.326;19.826;2023-06-22T11:10:15;33.60;95.40
11965;DHT22;6042;41.326;19.826;2023-06-22T11:12:45;33.70;94.80
11965;DHT22;6042;41.326;19.826;2023-06-22T11:15:14;33.70;94.50
11965;DHT22;6042;41.326;19.826;2023-06-22T11:17:42;33.80;94.80
11965;DHT22;6042;41.326;19.826;2023-06-22T11:20:11;34.10;94.60
11965;DHT22;6042;41.326;19.826;2023-06-22T11:22:40;34.10;94.40
11965;DHT22;6042;41.326;19.826;2023-06-22T11:25:09;34.10;94.50
11965;DHT22;6042;41.326;19.826;2023-06-22T11:27:38;34.10;94.40
11965;DHT22;6042;41.326;19.826;2023-06-22T11:30:09;34.40;94.40
11965;DHT22;6042;41.326;19.826;2023-06-22T11:32:37;34.30;94.10
11965;DHT22;6042;41.326;19.826;2023-06-22T11:35:07;34.30;94.80
11965;DHT22;6042;41.326;19.826;2023-06-22T11:37:35;33.90;95.60
11965;DHT22;6042;41.326;19.826;2023-06-22T11:40:04;34.00;95.50
11965;DHT22;6042;41.326;19.826;2023-06-22T11:42:36;34.00;95.80
11965;DHT22;6042;41.326;19.826;2023-06-22T11:45:08;34.00;95.70
11965;DHT22;6042;41.326;19.826;2023-06-22T11:47:38;33.60;96.10
11965;DHT22;6042;41.326;19.826;2023-06-22T11:50:07;33.70;96.00
11965;DHT22;6042;41.326;19.826;2023-06-22T11:52:36;34.00;95.80
11965;DHT22;6042;41.326;19.826;2023-06-22T11:55:05;34.10;95.80
11965;DHT22;6042;41.326;19.826;2023-06-22T11:57:35;34.50;95.20
11965;DHT22;6042;41.326;19.826;2023-06-22T12:00:05;34.80;94.80
11965;DHT22;6042;41.326;19.826;2023-06-22T12:02:45;34.80;94.40
11965;DHT22;6042;41.326;19.826;2023-06-22T12:05:14;34.80;94.30
11965;DHT22;6042;41.326;19.826;2023-06-22T12:07:42;34.80;94.20
11965;DHT22;6042;41.326;19.826;2023-06-22T12:10:11;34.60;95.10
11965;DHT22;6042;41.326;19.826;2023-06-22T12:12:39;34.60;95.50
11965;DHT22;6042;41.326;19.826;2023-06-22T12:15:09;34.70;94.20
11965;DHT22;6042;41.326;19.826;2023-06-22T12:17:38;34.50;94.70
11965;DHT22;6042;41.326;19.826;2023-06-22T12:20:09;34.60;94.80
11965;DHT22;6042;41.326;19.826;2023-06-22T12:22:37;35.00;93.60
11965;DHT22;6042;41.326;19.826;2023-06-22T12:25:06;35.00;92.80
11965;DHT22;6042;41.326;19.826;2023-06-22T12:27:35;34.80;93.20
11965;DHT22;6042;41.326;19.826;2023-06-22T12:30:05;34.90;93.20
11965;DHT22;6042;41.326;19.826;2023-06-22T12:32:33;35.10;93.30
11965;DHT22;6042;41.326;19.826;2023-06-22T12:35:02;35.40;92.60
11965;DHT22;6042;41.326;19.826;2023-06-22T12:37:32;35.60;91.90
11965;DHT22;6042;41.326;19.826;2023-06-22T12:40:01;35.40;92.20
11965;DHT22;6042;41.326;19.826;2023-06-22T12:42:30;35.60;92.20
11965;DHT22;6042;41.326;19.826;2023-06-22T12:44:59;36.10;92.00
11965;DHT22;6042;41.326;19.826;2023-06-22T12:47:27;36.80;91.60
11965;DHT22;6042;41.326;19.826;2023-06-22T12:49:56;37.50;91.20
11965;DHT22;6042;41.326;19.826;2023-06-22T12:52:24;37.40;91.70
11965;DHT22;6042;41.326;19.826;2023-06-22T12:54:54;37.70;91.70
11965;DHT22;6042;41.326;19.826;2023-06-22T12:57:23;37.70;91.20
11965;DHT22;6042;41.326;19.826;2023-06-22T12:59:52;38.00;92.10
11965;DHT22;6042;41.326;19.826;2023-06-22T13:02:21;37.40;92.50
11965;DHT22;6042;41.326;19.826;2023-06-22T13:04:49;38.00;91.50
11965;DHT22;6042;41.326;19.826;2023-06-22T13:07:18;38.50;90.30
11965;DHT22;6042;41.326;19.826;2023-06-22T13:09:50;39.50;88.80
11965;DHT22;6042;41.326;19.826;2023-06-22T13:12:21;39.80;88.20
11965;DHT22;6042;41.326;19.826;2023-06-22T13:14:50;40.70;85.00
11965;DHT22;6042;41.326;19.826;2023-06-22T13:17:18;40.90;83.40
11965;DHT22;6042;41.326;19.826;2023-06-22T13:19:47;41.10;82.70
11965;DHT22;6042;41.326;19.826;2023-06-22T13:22:29;41.40;81.00
11965;DHT22;6042;41.326;19.826;2023-06-22T13:25:00;41.20;80.80
11965;DHT22;6042;41.326;19.826;2023-06-22T13:27:30;40.70;81.90
11965;DHT22;6042;41.326;19.826;2023-06-22T13:29:59;40.00;83.60
11965;DHT22;6042;41.326;19.826;2023-06-22T13:32:27;40.00;83.50
11965;DHT22;6042;41.326;19.826;2023-06-22T13:34:56;40.50;82.50
11965;DHT22;6042;41.326;19.826;2023-06-22T13:37:25;40.90;81.10
11965;DHT22;6042;41.326;19.826;2023-06-22T13:39:54;40.40;82.80
11965;DHT22;6042;41.326;19.826;2023-06-22T13:42:24;40.40;82.80
11965;DHT22;6042;41.326;19.826;2023-06-22T13:44:54;40.50;80.90
11965;DHT22;6042;41.326;19.826;2023-06-22T13:47:22;40.80;79.90
11965;DHT22;6042;41.326;19.826;2023-06-22T13:49:51;41.00;79.00
11965;DHT22;6042;41.326;19.826;2023-06-22T13:52:19;40.90;79.20
11965;DHT22;6042;41.326;19.826;2023-06-22T13:54:48;40.50;79.90
11965;DHT22;6042;41.326;19.826;2023-06-22T13:57:16;40.40;80.00
11965;DHT22;6042;41.326;19.826;2023-06-22T13:59:45;40.90;78.70
11965;DHT22;6042;41.326;19.826;2023-06-22T14:02:15;41.10;78.20
11965;DHT22;6042;41.326;19.826;2023-06-22T14:04:43;40.60;79.60
11965;DHT22;6042;41.326;19.826;2023-06-22T14:07:13;41.50;77.90
11965;DHT22;6042;41.326;19.826;2023-06-22T14:09:43;41.50;77.90
11965;DHT22;6042;41.326;19.826;2023-06-22T14:12:12;42.00;76.30
11965;DHT22;6042;41.326;19.826;2023-06-22T14:14:40;41.70;77.70
11965;DHT22;6042;41.326;19.826;2023-06-22T14:17:08;41.40;78.70
11965;DHT22;6042;41.326;19.826;2023-06-22T14:19:38;41.80;78.80
11965;DHT22;6042;41.326;19.826;2023-06-22T14:22:07;42.40;77.60
11965;DHT22;6042;41.326;19.826;2023-06-22T14:24:35;42.30;77.40
11965;DHT22;6042;41.326;19.826;2023-06-22T14:27:04;41.70;78.90
11965;DHT22;6042;41.326;19.826;2023-06-22T14:29:35;42.10;78.20
11965;DHT22;6042;41.326;19.826;2023-06-22T14:32:04;42.60;77.50
11965;DHT22;6042;41.326;19.826;2023-06-22T14:34:34;42.40;78.00
11965;DHT22;6042;41.326;19.826;2023-06-22T14:37:08;41.40;79.80
11965;DHT22;6042;41.326;19.826;2023-06-22T14:39:37;41.90;78.50
11965;DHT22;6042;41.326;19.826;2023-06-22T14:42:06;42.00;78.90
11965;DHT22;6042;41.326;19.826;2023-06-22T14:44:35;42.20;78.40
11965;DHT22;6042;41.326;19.826;2023-06-22T14:47:03;42.80;77.00
11965;DHT22;6042;41.326;19.826;2023-06-22T14:49:32;42.80;77.00
11965;DHT22;6042;41.326;19.826;2023-06-22T14:52:03;42.60;76.70
11965;DHT22;6042;41.326;19.826;2023-06-22T14:54:33;41.90;78.70
11965;DHT22;6042;41.326;19.826;2023-06-22T14:57:02;42.30;77.30
11965;DHT22;6042;41.326;19.826;2023-06-22T14:59:30;42.60;76.70
11965;DHT22;6042;41.326;19.826;2023-06-22T15:01:59;41.70;79.50
11965;DHT22;6042;41.326;19.826;2023-06-22T15:04:27;41.70;80.40
11965;DHT22;6042;41.326;19.826;2023-06-22T15:07:01;41.80;80.30
11965;DHT22;6042;41.326;19.826;2023-06-22T15:09:30;41.40;80.80
11965;DHT22;6042;41.326;19.826;2023-06-22T15:12:01;40.70;82.80
11965;DHT22;6042;41.326;19.826;2023-06-22T15:14:32;41.20;81.60
11965;DHT22;6042;41.326;19.826;2023-06-22T15:17:01;41.60;81.00
11965;DHT22;6042;41.326;19.826;2023-06-22T15:19:29;42.00;79.90
11965;DHT22;6042;41.326;19.826;2023-06-22T15:21:58;41.70;80.40
11965;DHT22;6042;41.326;19.826;2023-06-22T15:24:27;42.00;79.90
11965;DHT22;6042;41.326;19.826;2023-06-22T15:26:56;41.90;79.90
11965;DHT22;6042;41.326;19.826;2023-06-22T15:29:26;42.20;79.40
11965;DHT22;6042;41.326;19.826;2023-06-22T15:31:54;42.70;78.60
11965;DHT22;6042;41.326;19.826;2023-06-22T15:34:23;42.30;78.30
11965;DHT22;6042;41.326;19.826;2023-06-22T15:36:51;42.40;79.20
11965;DHT22;6042;41.326;19.826;2023-06-22T15:39:19;42.40;78.20
11965;DHT22;6042;41.326;19.826;2023-06-22T15:41:50;42.10;79.10
11965;DHT22;6042;41.326;19.826;2023-06-22T15:44:21;41.90;79.30
11965;DHT22;6042;41.326;19.826;2023-06-22T15:46:51;41.80;79.80
11965;DHT22;6042;41.326;19.826;2023-06-22T15:49:20;42.00;79.10
11965;DHT22;6042;41.326;19.826;2023-06-22T15:51:49;42.00;79.30